Latest Weather Observations for North Head

IDN60901

Issued at 11:31 pm EST Wednesday 25 May 2022 (issued every 10 minutes, with the page automatically refreshed every 10 minutes)

About weather observations | Map of Sydney area stations | Latest observations for Sydney area | Other Formats
Station Details ID: 066197 Name: NORTH HEAD Lat: -33.82 Lon: 151.30 Height: 90.0 m
Data from the previous 72 hours. | See also: Recent months at North Head
Date/Time
EST
Temp
°C
App
Temp
°C
Dew
Point
°C
Rel
Hum
%
Delta-T
°C
Wind Press
QNH
hPa
Press
MSL
hPa
Rain since
9am
mm
Dir  Spd
km/h
Gust
km/h
Spd
kts
Gust
kts
25/11:30pm - - - - - W 11 13 6 7 - - -
25/11:00pm - - - - - W 11 13 6 7 - - -
25/10:30pm - - - - - WNW 13 17 7 9 - - -
25/10:00pm - - - - - WNW 11 17 6 9 - - -
25/09:30pm - - - - - W 11 13 6 7 - - -
25/09:00pm - - - - - W 7 9 4 5 - - -
25/08:30pm - - - - - WSW 6 7 3 4 - - -
25/08:00pm - - - - - WSW 4 7 2 4 - - -
25/07:30pm - - - - - SSW 7 9 4 5 - - -
25/07:00pm - - - - - SW 6 9 3 5 - - -
25/06:30pm - - - - - SW 6 9 3 5 - - -
25/06:00pm - - - - - WSW 6 9 3 5 - - -
25/05:30pm - - - - - S 7 13 4 7 - - -
25/05:00pm - - - - - SSE 13 19 7 10 - - -
25/04:30pm - - - - - S 7 11 4 6 - - -
25/04:00pm - - - - - S 7 13 4 7 - - -
25/03:30pm - - - - - S 9 15 5 8 - - -
25/03:00pm - - - - - SSE 11 17 6 9 - - -
25/02:30pm - - - - - SSE 9 13 5 7 - - -
25/02:00pm - - - - - SSE 7 13 4 7 - - -
25/01:30pm - - - - - SSE 9 13 5 7 - - -
25/01:00pm - - - - - S 7 11 4 6 - - -
25/12:30pm - - - - - SSW 4 7 2 4 - - -
25/12:00pm - - - - - SW 6 9 3 5 - - -
25/11:30am - - - - - WSW 7 9 4 5 - - -
25/11:00am - - - - - SW 7 13 4 7 - - -
25/10:30am - - - - - WNW 7 11 4 6 - - -
25/10:00am - - - - - W 9 13 5 7 - - -
25/09:30am - - - - - W 9 15 5 8 - - -
25/09:00am - - - - - W 9 13 5 7 - - -
25/08:30am - - - - - WNW 6 9 3 5 - - -
25/08:00am - - - - - W 9 15 5 8 - - -
25/07:30am - - - - - W 9 11 5 6 - - -
25/07:00am - - - - - WSW 9 11 5 6 - - -
25/06:30am - - - - - WSW 7 9 4 5 - - -
25/06:00am - - - - - WSW 9 13 5 7 - - -
25/05:30am - - - - - SW 11 15 6 8 - - -
25/05:00am - - - - - W 11 15 6 8 - - -
25/04:30am - - - - - WNW 11 13 6 7 - - -
25/04:00am - - - - - NW 7 13 4 7 - - -
25/03:30am - - - - - NW 13 17 7 9 - - -
25/03:00am - - - - - WNW 11 13 6 7 - - -
25/02:30am - - - - - W 11 13 6 7 - - -
25/02:00am - - - - - W 11 13 6 7 - - -
25/01:30am - - - - - W 9 11 5 6 - - -
25/01:00am - - - - - W 7 9 4 5 - - -
25/12:30am - - - - - WSW 7 9 4 5 - - -
25/12:00am - - - - - W 7 9 4 5 - - -
 
Date/Time
EST
Temp
°C
App
Temp
°C
Dew
Point
°C
Rel
Hum
%
Delta-T
°C
Wind Press
QNH
hPa
Press
MSL
hPa
Rain since
9am
mm
Dir  Spd
km/h
Gust
km/h
Spd
kts
Gust
kts
24/11:30pm - - - - - WSW 7 15 4 8 - - -
24/11:00pm - - - - - W 9 13 5 7 - - -
24/10:30pm - - - - - W 9 13 5 7 - - -
24/10:00pm - - - - - W 9 11 5 6 - - -
24/09:30pm - - - - - W 9 11 5 6 - - -
24/09:00pm - - - - - WNW 4 7 2 4 - - -
24/08:30pm - - - - - NW 4 6 2 3 - - -
24/08:00pm - - - - - ESE 9 15 5 8 - - -
24/07:30pm - - - - - E 13 20 7 11 - - -
24/07:00pm - - - - - ENE 9 17 5 9 - - -
24/06:30pm - - - - - CALM 0 0 0 0 - - -
24/06:00pm - - - - - CALM 0 0 0 0 - - -
24/05:30pm - - - - - CALM 0 0 0 0 - - -
24/05:00pm - - - - - WSW 2 4 1 2 - - -
24/04:30pm - - - - - W 2 4 1 2 - - -
24/04:00pm - - - - - ENE 4 7 2 4 - - -
24/03:30pm - - - - - NW 4 4 2 2 - - -
24/03:00pm - - - - - NW 6 9 3 5 - - -
24/02:30pm - - - - - ENE 6 9 3 5 - - -
24/02:00pm - - - - - ENE 6 7 3 4 - - -
24/01:30pm - - - - - SSE 4 7 2 4 - - -
24/01:00pm - - - - - WSW 6 9 3 5 - - -
24/12:30pm - - - - - CALM 0 0 0 0 - - -
24/12:00pm - - - - - CALM 0 6 0 3 - - -
24/11:30am - - - - - NW 4 6 2 3 - - -
24/11:00am - - - - - W 7 9 4 5 - - -
24/10:30am - - - - - WNW 9 11 5 6 - - -
24/10:00am - - - - - W 11 15 6 8 - - -
24/09:30am - - - - - WSW 7 11 4 6 - - -
24/09:00am - - - - - W 9 13 5 7 - - -
24/08:30am - - - - - W 11 15 6 8 - - -
24/08:00am - - - - - W 13 17 7 9 - - -
24/07:30am - - - - - WNW 11 15 6 8 - - -
24/07:00am - - - - - WNW 11 15 6 8 - - -
24/06:30am - - - - - W 11 13 6 7 - - -
24/06:00am - - - - - W 9 13 5 7 - - -
24/05:30am - - - - - W 2 6 1 3 - - -
24/05:00am - - - - - E 4 9 2 5 - - -
24/04:30am - - - - - ESE 6 9 3 5 - - -
24/04:00am - - - - - WSW 7 11 4 6 - - -
24/03:30am - - - - - SW 13 19 7 10 - - -
24/03:00am - - - - - SW 7 13 4 7 - - -
24/02:30am - - - - - WNW 7 13 4 7 - - -
24/02:00am - - - - - NNW 13 24 7 13 - - -
24/01:30am - - - - - NW 7 11 4 6 - - -
24/01:00am - - - - - ESE 11 17 6 9 - - -
24/12:30am - - - - - SE 13 28 7 15 - - -
24/12:00am - - - - - ESE 32 43 17 23 - - -
 
Date/Time
EST
Temp
°C
App
Temp
°C
Dew
Point
°C
Rel
Hum
%
Delta-T
°C
Wind Press
QNH
hPa
Press
MSL
hPa
Rain since
9am
mm
Dir  Spd
km/h
Gust
km/h
Spd
kts
Gust
kts
23/11:49pm - - - - - SE 22 43 12 23 - - -
23/11:30pm - - - - - SSE 11 19 6 10 - - -
23/11:00pm - - - - - SE 13 20 7 11 - - -
23/10:30pm - - - - - SE 11 20 6 11 - - -
23/10:00pm - - - - - SSE 15 22 8 12 - - -
23/09:30pm - - - - - SSE 19 28 10 15 - - -
23/09:00pm - - - - - SSE 17 26 9 14 - - -
23/08:30pm - - - - - SSE 19 28 10 15 - - -
23/08:00pm - - - - - SSE 19 28 10 15 - - -
23/07:30pm - - - - - SSE 19 24 10 13 - - -
23/07:00pm - - - - - S 11 17 6 9 - - -
23/06:30pm - - - - - SSE 17 28 9 15 - - -
23/06:00pm - - - - - S 19 26 10 14 - - -
23/05:30pm - - - - - S 15 24 8 13 - - -
23/05:00pm - - - - - S 19 28 10 15 - - -
23/04:30pm - - - - - SSW 9 17 5 9 - - -
23/04:00pm - - - - - S 7 11 4 6 - - -
23/03:30pm - - - - - S 6 9 3 5 - - -
23/03:00pm - - - - - SE 13 22 7 12 - - -
23/02:30pm - - - - - ESE 19 24 10 13 - - -
23/02:00pm - - - - - E 17 24 9 13 - - -
23/01:30pm - - - - - ESE 15 26 8 14 - - -
23/01:00pm - - - - - SSE 9 17 5 9 - - -
23/12:30pm - - - - - ESE 6 11 3 6 - - -
23/12:00pm - - - - - NNE 2 17 1 9 - - -
23/11:30am - - - - - WSW 6 7 3 4 - - -
23/11:00am - - - - - WNW 7 11 4 6 - - -
23/10:30am - - - - - N 9 17 5 9 - - -
23/10:00am - - - - - SW 7 11 4 6 - - -
23/09:30am - - - - - SW 11 19 6 10 - - -
23/09:00am - - - - - SSW 11 17 6 9 - - -
23/08:30am - - - - - W 15 20 8 11 - - -
23/08:00am - - - - - W 15 17 8 9 - - -
23/07:30am - - - - - W 11 17 6 9 - - -
23/07:00am - - - - - W 11 17 6 9 - - -
23/06:30am - - - - - W 11 15 6 8 - - -
23/06:00am - - - - - W 11 15 6 8 - - -
23/05:30am - - - - - W 15 19 8 10 - - -
23/05:00am - - - - - NW 9 11 5 6 - - -
23/04:30am - - - - - WNW 11 15 6 8 - - -
23/04:00am - - - - - W 13 19 7 10 - - -
23/03:30am - - - - - W 13 19 7 10 - - -
23/03:00am - - - - - NW 13 17 7 9 - - -
23/02:30am - - - - - WSW 6 9 3 5 - - -
23/02:00am - - - - - SSW 4 9 2 5 - - -
23/01:30am - - - - - SW 2 7 1 4 - - -
23/01:00am - - - - - SSW 9 15 5 8 - - -
23/12:30am - - - - - S 17 22 9 12 - - -
23/12:00am - - - - - SW 9 15 5 8 - - -

Latest Capital City Observations: Canberra | Sydney | Melbourne | Brisbane | Adelaide | Perth | Hobart | Darwin

Other formats

Comma delimited format used in spreadsheet applications
http://www.bom.gov.au/fwo/IDN60901/IDN60901.95768.axf

JavaScript Object Notation format (JSON) in row-major order
http://www.bom.gov.au/fwo/IDN60901/IDN60901.95768.json

Data quality

Most of these data are generated automatically and are frequently updated. Quality checks on data are not normally performed. It is possible for incorrect values to appear. Refer to information at About Latest Weather Observations and please check the disclaimer before using these data.